sensor_id;sensor_type;location;lat;lon;timestamp;temperature;humidity
8188;DHT22;4135;49.184;9.722;2023-05-20T00:01:06;20.30;50.60
8188;DHT22;4135;49.184;9.722;2023-05-20T00:03:36;20.00;50.40
8188;DHT22;4135;49.184;9.722;2023-05-20T00:06:05;20.00;50.40
8188;DHT22;4135;49.184;9.722;2023-05-20T00:08:35;20.00;50.40
8188;DHT22;4135;49.184;9.722;2023-05-20T00:11:05;21.70;51.90
8188;DHT22;4135;49.184;9.722;2023-05-20T00:13:34;20.00;50.40
8188;DHT22;4135;49.184;9.722;2023-05-20T00:16:05;20.00;50.40
8188;DHT22;4135;49.184;9.722;2023-05-20T00:18:34;20.00;50.50
8188;DHT22;4135;49.184;9.722;2023-05-20T00:21:04;20.00;50.50
8188;DHT22;4135;49.184;9.722;2023-05-20T00:23:33;20.00;50.50
8188;DHT22;4135;49.184;9.722;2023-05-20T00:26:03;20.00;50.50
8188;DHT22;4135;49.184;9.722;2023-05-20T00:28:32;19.90;50.40
8188;DHT22;4135;49.184;9.722;2023-05-20T00:31:02;20.00;50.50
8188;DHT22;4135;49.184;9.722;2023-05-20T00:33:31;20.00;50.50
8188;DHT22;4135;49.184;9.722;2023-05-20T00:36:01;21.10;51.50
8188;DHT22;4135;49.184;9.722;2023-05-20T00:38:31;20.00;50.50
8188;DHT22;4135;49.184;9.722;2023-05-20T00:41:01;21.30;51.60
8188;DHT22;4135;49.184;9.722;2023-05-20T00:43:31;20.00;50.50
8188;DHT22;4135;49.184;9.722;2023-05-20T00:46:00;20.00;50.60
8188;DHT22;4135;49.184;9.722;2023-05-20T00:48:41;20.00;50.60
8188;DHT22;4135;49.184;9.722;2023-05-20T00:51:12;21.30;51.70
8188;DHT22;4135;49.184;9.722;2023-05-20T00:53:42;20.20;50.70
8188;DHT22;4135;49.184;9.722;2023-05-20T00:56:12;20.00;51.20
8188;DHT22;4135;49.184;9.722;2023-05-20T00:58:42;21.40;52.30
8188;DHT22;4135;49.184;9.722;2023-05-20T01:01:12;20.10;50.60
8188;DHT22;4135;49.184;9.722;2023-05-20T01:03:42;20.00;50.60
8188;DHT22;4135;49.184;9.722;2023-05-20T01:06:11;20.00;50.60
8188;DHT22;4135;49.184;9.722;2023-05-20T01:08:41;20.00;50.60
8188;DHT22;4135;49.184;9.722;2023-05-20T01:11:18;20.00;50.60
8188;DHT22;4135;49.184;9.722;2023-05-20T01:13:54;20.00;50.60
8188;DHT22;4135;49.184;9.722;2023-05-20T01:16:25;20.00;50.60
8188;DHT22;4135;49.184;9.722;2023-05-20T01:18:55;20.00;50.60
8188;DHT22;4135;49.184;9.722;2023-05-20T01:21:26;19.90;50.50
8188;DHT22;4135;49.184;9.722;2023-05-20T01:23:56;20.00;50.60
8188;DHT22;4135;49.184;9.722;2023-05-20T01:26:25;20.00;50.70
8188;DHT22;4135;49.184;9.722;2023-05-20T01:28:55;20.00;50.70
8188;DHT22;4135;49.184;9.722;2023-05-20T01:31:28;19.90;50.60
8188;DHT22;4135;49.184;9.722;2023-05-20T01:34:01;20.00;50.70
8188;DHT22;4135;49.184;9.722;2023-05-20T01:36:31;19.90;50.60
8188;DHT22;4135;49.184;9.722;2023-05-20T01:39:01;19.90;50.60
8188;DHT22;4135;49.184;9.722;2023-05-20T01:41:32;19.90;50.60
8188;DHT22;4135;49.184;9.722;2023-05-20T01:44:04;19.90;50.60
8188;DHT22;4135;49.184;9.722;2023-05-20T01:46:33;19.90;50.70
8188;DHT22;4135;49.184;9.722;2023-05-20T01:49:03;19.90;50.70
8188;DHT22;4135;49.184;9.722;2023-05-20T01:51:32;19.90;50.70
8188;DHT22;4135;49.184;9.722;2023-05-20T01:54:03;19.90;50.70
8188;DHT22;4135;49.184;9.722;2023-05-20T01:56:33;19.90;50.70
8188;DHT22;4135;49.184;9.722;2023-05-20T01:59:02;19.90;50.80
8188;DHT22;4135;49.184;9.722;2023-05-20T02:01:32;19.90;50.80
8188;DHT22;4135;49.184;9.722;2023-05-20T02:04:01;19.90;50.80
8188;DHT22;4135;49.184;9.722;2023-05-20T02:06:31;19.90;50.80
8188;DHT22;4135;49.184;9.722;2023-05-20T02:09:00;19.90;50.80
8188;DHT22;4135;49.184;9.722;2023-05-20T02:11:30;19.90;50.80
8188;DHT22;4135;49.184;9.722;2023-05-20T02:13:59;19.90;50.80
8188;DHT22;4135;49.184;9.722;2023-05-20T02:16:29;19.90;50.80
8188;DHT22;4135;49.184;9.722;2023-05-20T02:18:59;19.90;50.80
8188;DHT22;4135;49.184;9.722;2023-05-20T02:21:30;19.90;50.80
8188;DHT22;4135;49.184;9.722;2023-05-20T02:23:59;19.90;50.80
8188;DHT22;4135;49.184;9.722;2023-05-20T02:26:29;19.90;50.80
8188;DHT22;4135;49.184;9.722;2023-05-20T02:28:59;19.90;50.80
8188;DHT22;4135;49.184;9.722;2023-05-20T02:31:28;19.90;50.80
8188;DHT22;4135;49.184;9.722;2023-05-20T02:33:58;19.90;50.90
8188;DHT22;4135;49.184;9.722;2023-05-20T02:36:27;19.90;50.90
8188;DHT22;4135;49.184;9.722;2023-05-20T02:38:57;19.90;50.90
8188;DHT22;4135;49.184;9.722;2023-05-20T02:41:27;19.90;50.90
8188;DHT22;4135;49.184;9.722;2023-05-20T02:43:56;19.90;50.90
8188;DHT22;4135;49.184;9.722;2023-05-20T02:46:26;19.90;50.90
8188;DHT22;4135;49.184;9.722;2023-05-20T02:48:55;19.90;50.90
8188;DHT22;4135;49.184;9.722;2023-05-20T02:51:25;19.90;50.90
8188;DHT22;4135;49.184;9.722;2023-05-20T02:53:54;19.90;50.90
8188;DHT22;4135;49.184;9.722;2023-05-20T02:56:24;19.90;50.90
8188;DHT22;4135;49.184;9.722;2023-05-20T02:58:53;19.90;50.90
8188;DHT22;4135;49.184;9.722;2023-05-20T03:01:23;21.40;52.20
8188;DHT22;4135;49.184;9.722;2023-05-20T03:03:52;19.90;50.90
8188;DHT22;4135;49.184;9.722;2023-05-20T03:06:22;19.90;50.90
8188;DHT22;4135;49.184;9.722;2023-05-20T03:08:52;19.90;50.90
8188;DHT22;4135;49.184;9.722;2023-05-20T03:11:21;19.90;50.90
8188;DHT22;4135;49.184;9.722;2023-05-20T03:13:51;19.90;50.90
8188;DHT22;4135;49.184;9.722;2023-05-20T03:16:21;19.90;51.00
8188;DHT22;4135;49.184;9.722;2023-05-20T03:18:50;19.90;51.00
8188;DHT22;4135;49.184;9.722;2023-05-20T03:21:20;19.90;51.00
8188;DHT22;4135;49.184;9.722;2023-05-20T03:23:52;19.90;50.90
8188;DHT22;4135;49.184;9.722;2023-05-20T03:26:21;19.90;50.90
8188;DHT22;4135;49.184;9.722;2023-05-20T03:28:51;19.90;50.90
8188;DHT22;4135;49.184;9.722;2023-05-20T03:31:20;19.90;51.00
8188;DHT22;4135;49.184;9.722;2023-05-20T03:33:50;19.90;51.00
8188;DHT22;4135;49.184;9.722;2023-05-20T03:36:19;19.90;51.00
8188;DHT22;4135;49.184;9.722;2023-05-20T03:38:49;21.10;52.00
8188;DHT22;4135;49.184;9.722;2023-05-20T03:41:18;19.90;51.00
8188;DHT22;4135;49.184;9.722;2023-05-20T03:43:48;19.90;51.00
8188;DHT22;4135;49.184;9.722;2023-05-20T03:46:17;19.90;51.00
8188;DHT22;4135;49.184;9.722;2023-05-20T03:48:47;19.90;51.00
8188;DHT22;4135;49.184;9.722;2023-05-20T03:51:16;19.90;51.00
8188;DHT22;4135;49.184;9.722;2023-05-20T03:53:46;19.90;51.00
8188;DHT22;4135;49.184;9.722;2023-05-20T03:56:15;19.90;51.00
8188;DHT22;4135;49.184;9.722;2023-05-20T03:58:45;19.90;51.00
8188;DHT22;4135;49.184;9.722;2023-05-20T04:01:15;19.90;51.00
8188;DHT22;4135;49.184;9.722;2023-05-20T04:03:45;19.90;51.10
8188;DHT22;4135;49.184;9.722;2023-05-20T04:06:15;19.90;51.10
8188;DHT22;4135;49.184;9.722;2023-05-20T04:08:44;19.90;51.10
8188;DHT22;4135;49.184;9.722;2023-05-20T04:11:14;19.80;51.00
8188;DHT22;4135;49.184;9.722;2023-05-20T04:13:44;19.90;51.10
8188;DHT22;4135;49.184;9.722;2023-05-20T04:16:13;19.90;51.10
8188;DHT22;4135;49.184;9.722;2023-05-20T04:18:43;19.90;51.10
8188;DHT22;4135;49.184;9.722;2023-05-20T04:21:14;19.80;51.00
8188;DHT22;4135;49.184;9.722;2023-05-20T04:23:43;19.90;51.10
8188;DHT22;4135;49.184;9.722;2023-05-20T04:26:13;19.90;51.10
8188;DHT22;4135;49.184;9.722;2023-05-20T04:28:42;19.90;51.10
8188;DHT22;4135;49.184;9.722;2023-05-20T04:31:12;19.80;51.10
8188;DHT22;4135;49.184;9.722;2023-05-20T04:33:41;19.90;51.20
8188;DHT22;4135;49.184;9.722;2023-05-20T04:36:12;19.80;51.10
8188;DHT22;4135;49.184;9.722;2023-05-20T04:38:44;19.90;51.20
8188;DHT22;4135;49.184;9.722;2023-05-20T04:41:14;19.90;51.20
8188;DHT22;4135;49.184;9.722;2023-05-20T04:43:44;19.90;51.20
8188;DHT22;4135;49.184;9.722;2023-05-20T04:46:14;19.90;51.20
8188;DHT22;4135;49.184;9.722;2023-05-20T04:48:44;19.90;51.20
8188;DHT22;4135;49.184;9.722;2023-05-20T04:51:16;19.90;51.20
8188;DHT22;4135;49.184;9.722;2023-05-20T04:53:46;19.90;51.20
8188;DHT22;4135;49.184;9.722;2023-05-20T04:56:15;19.90;51.20
8188;DHT22;4135;49.184;9.722;2023-05-20T04:58:45;19.90;51.20
8188;DHT22;4135;49.184;9.722;2023-05-20T05:01:14;19.90;51.20
8188;DHT22;4135;49.184;9.722;2023-05-20T05:03:44;19.90;51.20
8188;DHT22;4135;49.184;9.722;2023-05-20T05:06:13;19.90;51.20
8188;DHT22;4135;49.184;9.722;2023-05-20T05:08:43;19.90;51.20
8188;DHT22;4135;49.184;9.722;2023-05-20T05:11:12;19.90;51.20
8188;DHT22;4135;49.184;9.722;2023-05-20T05:13:42;19.90;51.20
8188;DHT22;4135;49.184;9.722;2023-05-20T05:16:11;19.90;51.20
8188;DHT22;4135;49.184;9.722;2023-05-20T05:18:41;19.90;51.20
8188;DHT22;4135;49.184;9.722;2023-05-20T05:21:11;19.90;51.20
8188;DHT22;4135;49.184;9.722;2023-05-20T05:23:40;20.00;51.30
8188;DHT22;4135;49.184;9.722;2023-05-20T05:26:10;19.90;51.20
8188;DHT22;4135;49.184;9.722;2023-05-20T05:28:41;19.90;51.30
8188;DHT22;4135;49.184;9.722;2023-05-20T05:31:11;19.90;51.30
8188;DHT22;4135;49.184;9.722;2023-05-20T05:33:41;19.90;51.30
8188;DHT22;4135;49.184;9.722;2023-05-20T05:36:10;19.90;51.30
8188;DHT22;4135;49.184;9.722;2023-05-20T05:38:40;19.90;51.30
8188;DHT22;4135;49.184;9.722;2023-05-20T05:41:09;20.00;51.40
8188;DHT22;4135;49.184;9.722;2023-05-20T05:43:39;19.90;51.30
8188;DHT22;4135;49.184;9.722;2023-05-20T05:46:08;19.90;51.40
8188;DHT22;4135;49.184;9.722;2023-05-20T05:48:38;20.00;51.50
8188;DHT22;4135;49.184;9.722;2023-05-20T05:51:08;20.00;51.50
8188;DHT22;4135;49.184;9.722;2023-05-20T05:53:37;19.90;51.40
8188;DHT22;4135;49.184;9.722;2023-05-20T05:56:07;20.00;51.50
8188;DHT22;4135;49.184;9.722;2023-05-20T05:58:37;20.00;51.50
8188;DHT22;4135;49.184;9.722;2023-05-20T06:01:06;20.00;51.50
8188;DHT22;4135;49.184;9.722;2023-05-20T06:03:36;19.90;51.50
8188;DHT22;4135;49.184;9.722;2023-05-20T06:06:05;20.00;51.60
8188;DHT22;4135;49.184;9.722;2023-05-20T06:08:35;20.00;51.60
8188;DHT22;4135;49.184;9.722;2023-05-20T06:11:04;20.00;51.70
8188;DHT22;4135;49.184;9.722;2023-05-20T06:13:35;20.00;51.70
8188;DHT22;4135;49.184;9.722;2023-05-20T06:16:04;20.00;51.70
8188;DHT22;4135;49.184;9.722;2023-05-20T06:18:34;20.00;51.70
8188;DHT22;4135;49.184;9.722;2023-05-20T06:21:03;20.00;51.70
8188;DHT22;4135;49.184;9.722;2023-05-20T06:23:33;20.00;51.80
8188;DHT22;4135;49.184;9.722;2023-05-20T06:26:03;20.20;51.90
8188;DHT22;4135;49.184;9.722;2023-05-20T06:28:32;20.10;51.90
8188;DHT22;4135;49.184;9.722;2023-05-20T06:31:02;20.00;51.80
8188;DHT22;4135;49.184;9.722;2023-05-20T06:33:31;20.00;51.80
8188;DHT22;4135;49.184;9.722;2023-05-20T06:36:01;20.00;51.80
8188;DHT22;4135;49.184;9.722;2023-05-20T06:38:31;20.00;51.80
8188;DHT22;4135;49.184;9.722;2023-05-20T06:41:00;20.00;51.80
8188;DHT22;4135;49.184;9.722;2023-05-20T06:43:30;20.00;51.90
8188;DHT22;4135;49.184;9.722;2023-05-20T06:45:59;20.10;52.00
8188;DHT22;4135;49.184;9.722;2023-05-20T06:48:29;20.00;52.00
8188;DHT22;4135;49.184;9.722;2023-05-20T06:50:58;20.00;52.10
8188;DHT22;4135;49.184;9.722;2023-05-20T06:53:28;20.00;52.10
8188;DHT22;4135;49.184;9.722;2023-05-20T06:55:57;20.00;52.10
8188;DHT22;4135;49.184;9.722;2023-05-20T06:58:27;20.10;52.20
8188;DHT22;4135;49.184;9.722;2023-05-20T07:00:57;20.10;52.20
8188;DHT22;4135;49.184;9.722;2023-05-20T07:03:26;20.10;52.30
8188;DHT22;4135;49.184;9.722;2023-05-20T07:05:56;20.10;52.30
8188;DHT22;4135;49.184;9.722;2023-05-20T07:08:25;20.10;52.30
8188;DHT22;4135;49.184;9.722;2023-05-20T07:10:55;20.30;52.50
8188;DHT22;4135;49.184;9.722;2023-05-20T07:13:25;20.10;52.40
8188;DHT22;4135;49.184;9.722;2023-05-20T07:15:54;20.10;52.40
8188;DHT22;4135;49.184;9.722;2023-05-20T07:18:24;20.10;52.40
8188;DHT22;4135;49.184;9.722;2023-05-20T07:20:54;20.10;52.40
8188;DHT22;4135;49.184;9.722;2023-05-20T07:23:25;20.10;52.40
8188;DHT22;4135;49.184;9.722;2023-05-20T07:25:54;20.10;52.40
8188;DHT22;4135;49.184;9.722;2023-05-20T07:28:24;20.20;52.50
8188;DHT22;4135;49.184;9.722;2023-05-20T07:30:53;20.10;52.40
8188;DHT22;4135;49.184;9.722;2023-05-20T07:33:25;20.50;52.80
8188;DHT22;4135;49.184;9.722;2023-05-20T07:35:54;20.20;52.50
8188;DHT22;4135;49.184;9.722;2023-05-20T07:38:24;20.20;52.50
8188;DHT22;4135;49.184;9.722;2023-05-20T07:40:53;20.20;52.50
8188;DHT22;4135;49.184;9.722;2023-05-20T07:43:23;20.20;52.50
8188;DHT22;4135;49.184;9.722;2023-05-20T07:45:52;20.20;52.50
8188;DHT22;4135;49.184;9.722;2023-05-20T07:48:22;20.20;52.50
8188;DHT22;4135;49.184;9.722;2023-05-20T07:50:51;20.20;52.50
8188;DHT22;4135;49.184;9.722;2023-05-20T07:53:21;20.30;52.60
8188;DHT22;4135;49.184;9.722;2023-05-20T07:55:51;20.30;52.60
8188;DHT22;4135;49.184;9.722;2023-05-20T07:58:21;20.30;52.50
8188;DHT22;4135;49.184;9.722;2023-05-20T08:00:50;20.30;52.60
8188;DHT22;4135;49.184;9.722;2023-05-20T08:03:20;20.30;52.60
8188;DHT22;4135;49.184;9.722;2023-05-20T08:05:50;20.30;52.60
8188;DHT22;4135;49.184;9.722;2023-05-20T08:08:20;20.30;52.60
8188;DHT22;4135;49.184;9.722;2023-05-20T08:10:50;20.30;52.60
8188;DHT22;4135;49.184;9.722;2023-05-20T08:13:21;20.30;52.60
8188;DHT22;4135;49.184;9.722;2023-05-20T08:15:54;20.30;52.60
8188;DHT22;4135;49.184;9.722;2023-05-20T08:18:23;20.30;52.60
8188;DHT22;4135;49.184;9.722;2023-05-20T08:20:53;20.30;52.60
8188;DHT22;4135;49.184;9.722;2023-05-20T08:23:22;20.30;52.60
8188;DHT22;4135;49.184;9.722;2023-05-20T08:25:52;20.40;52.70
8188;DHT22;4135;49.184;9.722;2023-05-20T08:28:22;20.40;52.70
8188;DHT22;4135;49.184;9.722;2023-05-20T08:30:51;20.30;52.60
8188;DHT22;4135;49.184;9.722;2023-05-20T08:33:21;20.40;52.70
8188;DHT22;4135;49.184;9.722;2023-05-20T08:35:51;20.40;52.70
8188;DHT22;4135;49.184;9.722;2023-05-20T08:38:20;20.40;52.70
8188;DHT22;4135;49.184;9.722;2023-05-20T08:40:53;20.40;52.70
8188;DHT22;4135;49.184;9.722;2023-05-20T08:43:24;20.40;52.70
8188;DHT22;4135;49.184;9.722;2023-05-20T08:45:53;20.40;52.70
8188;DHT22;4135;49.184;9.722;2023-05-20T08:48:25;20.40;52.80
8188;DHT22;4135;49.184;9.722;2023-05-20T08:50:56;20.40;52.80
8188;DHT22;4135;49.184;9.722;2023-05-20T08:53:26;20.40;52.80
8188;DHT22;4135;49.184;9.722;2023-05-20T08:55:59;20.40;52.80
8188;DHT22;4135;49.184;9.722;2023-05-20T08:58:31;20.40;53.20
8188;DHT22;4135;49.184;9.722;2023-05-20T09:01:05;20.40;52.80
8188;DHT22;4135;49.184;9.722;2023-05-20T09:03:36;20.40;52.90
8188;DHT22;4135;49.184;9.722;2023-05-20T09:06:06;20.40;52.90
8188;DHT22;4135;49.184;9.722;2023-05-20T09:08:36;20.40;52.80
8188;DHT22;4135;49.184;9.722;2023-05-20T09:11:08;21.80;54.00
8188;DHT22;4135;49.184;9.722;2023-05-20T09:13:38;20.40;52.80
8188;DHT22;4135;49.184;9.722;2023-05-20T09:16:09;20.40;52.80
8188;DHT22;4135;49.184;9.722;2023-05-20T09:18:39;20.40;52.80
8188;DHT22;4135;49.184;9.722;2023-05-20T09:21:09;20.40;52.80
8188;DHT22;4135;49.184;9.722;2023-05-20T09:23:46;20.40;52.80
8188;DHT22;4135;49.184;9.722;2023-05-20T09:26:17;21.10;53.40
8188;DHT22;4135;49.184;9.722;2023-05-20T09:28:46;20.40;52.80
8188;DHT22;4135;49.184;9.722;2023-05-20T09:31:16;20.40;52.80
8188;DHT22;4135;49.184;9.722;2023-05-20T09:33:48;20.40;52.80
8188;DHT22;4135;49.184;9.722;2023-05-20T09:36:18;20.40;52.80
8188;DHT22;4135;49.184;9.722;2023-05-20T09:38:51;20.40;52.80
8188;DHT22;4135;49.184;9.722;2023-05-20T09:41:23;20.40;52.80
8188;DHT22;4135;49.184;9.722;2023-05-20T09:43:55;20.40;52.80
8188;DHT22;4135;49.184;9.722;2023-05-20T09:46:26;20.40;52.90
8188;DHT22;4135;49.184;9.722;2023-05-20T09:48:57;21.70;54.00
8188;DHT22;4135;49.184;9.722;2023-05-20T09:51:28;20.40;52.90
8188;DHT22;4135;49.184;9.722;2023-05-20T09:53:58;20.40;52.90
8188;DHT22;4135;49.184;9.722;2023-05-20T09:56:29;20.40;52.90
8188;DHT22;4135;49.184;9.722;2023-05-20T09:59:01;20.40;52.90
8188;DHT22;4135;49.184;9.722;2023-05-20T10:01:33;20.40;52.90
8188;DHT22;4135;49.184;9.722;2023-05-20T10:04:05;20.50;53.00
8188;DHT22;4135;49.184;9.722;2023-05-20T10:06:44;20.50;53.00
8188;DHT22;4135;49.184;9.722;2023-05-20T10:16:24;20.50;53.10
8188;DHT22;4135;49.184;9.722;2023-05-20T10:18:55;20.50;53.20
8188;DHT22;4135;49.184;9.722;2023-05-20T10:21:25;21.10;53.70
8188;DHT22;4135;49.184;9.722;2023-05-20T10:24:05;21.10;53.80
8188;DHT22;4135;49.184;9.722;2023-05-20T10:26:40;20.60;53.40
8188;DHT22;4135;49.184;9.722;2023-05-20T10:29:17;20.60;53.40
8188;DHT22;4135;49.184;9.722;2023-05-20T10:31:51;20.50;53.40
8188;DHT22;4135;49.184;9.722;2023-05-20T10:34:22;20.70;53.60
8188;DHT22;4135;49.184;9.722;2023-05-20T10:39:31;20.50;53.50
8188;DHT22;4135;49.184;9.722;2023-05-20T10:42:07;20.50;53.60
8188;DHT22;4135;49.184;9.722;2023-05-20T10:44:45;20.50;53.60
8188;DHT22;4135;49.184;9.722;2023-05-20T10:47:15;20.50;53.60
8188;DHT22;4135;49.184;9.722;2023-05-20T10:49:45;20.50;53.60
8188;DHT22;4135;49.184;9.722;2023-05-20T10:52:18;20.50;53.80
8188;DHT22;4135;49.184;9.722;2023-05-20T10:54:57;20.50;53.70
8188;DHT22;4135;49.184;9.722;2023-05-20T10:57:27;20.60;53.80
8188;DHT22;4135;49.184;9.722;2023-05-20T10:59:57;20.60;53.80
8188;DHT22;4135;49.184;9.722;2023-05-20T11:02:28;20.50;53.70
8188;DHT22;4135;49.184;9.722;2023-05-20T11:04:59;20.50;53.70
8188;DHT22;4135;49.184;9.722;2023-05-20T11:07:30;20.50;53.80
8188;DHT22;4135;49.184;9.722;2023-05-20T11:10:00;20.50;53.90
8188;DHT22;4135;49.184;9.722;2023-05-20T11:12:31;20.50;53.90
8188;DHT22;4135;49.184;9.722;2023-05-20T11:15:01;20.40;53.90
8188;DHT22;4135;49.184;9.722;2023-05-20T11:17:31;21.80;55.10
8188;DHT22;4135;49.184;9.722;2023-05-20T11:20:00;20.40;53.90
8188;DHT22;4135;49.184;9.722;2023-05-20T11:22:30;20.50;54.00
8188;DHT22;4135;49.184;9.722;2023-05-20T11:25:04;20.40;53.90
8188;DHT22;4135;49.184;9.722;2023-05-20T11:27:38;20.40;53.90
8188;DHT22;4135;49.184;9.722;2023-05-20T11:30:08;20.50;54.00
8188;DHT22;4135;49.184;9.722;2023-05-20T11:32:39;20.40;53.90
8188;DHT22;4135;49.184;9.722;2023-05-20T11:35:30;20.40;54.10
8188;DHT22;4135;49.184;9.722;2023-05-20T11:38:04;20.40;54.10
8188;DHT22;4135;49.184;9.722;2023-05-20T11:40:34;20.40;54.10
8188;DHT22;4135;49.184;9.722;2023-05-20T11:43:04;20.40;54.10
8188;DHT22;4135;49.184;9.722;2023-05-20T11:45:41;20.40;54.10
8188;DHT22;4135;49.184;9.722;2023-05-20T11:48:11;20.30;54.20
8188;DHT22;4135;49.184;9.722;2023-05-20T11:50:44;20.30;54.20
8188;DHT22;4135;49.184;9.722;2023-05-20T11:53:19;20.30;54.30
8188;DHT22;4135;49.184;9.722;2023-05-20T11:55:53;20.30;54.20
8188;DHT22;4135;49.184;9.722;2023-05-20T11:58:25;20.30;54.30
8188;DHT22;4135;49.184;9.722;2023-05-20T12:00:55;20.30;54.30
8188;DHT22;4135;49.184;9.722;2023-05-20T12:03:24;20.30;54.50
8188;DHT22;4135;49.184;9.722;2023-05-20T12:05:54;20.30;54.40
8188;DHT22;4135;49.184;9.722;2023-05-20T12:08:23;20.30;54.40
8188;DHT22;4135;49.184;9.722;2023-05-20T12:10:53;20.30;54.40
8188;DHT22;4135;49.184;9.722;2023-05-20T12:13:22;20.30;54.40
8188;DHT22;4135;49.184;9.722;2023-05-20T12:15:52;20.30;54.30
8188;DHT22;4135;49.184;9.722;2023-05-20T12:18:21;20.30;54.40
8188;DHT22;4135;49.184;9.722;2023-05-20T12:20:51;20.30;54.30
8188;DHT22;4135;49.184;9.722;2023-05-20T12:23:21;20.40;54.40
8188;DHT22;4135;49.184;9.722;2023-05-20T12:25:50;20.30;54.40
8188;DHT22;4135;49.184;9.722;2023-05-20T12:28:20;20.40;54.40
8188;DHT22;4135;49.184;9.722;2023-05-20T12:30:50;20.40;54.50
8188;DHT22;4135;49.184;9.722;2023-05-20T12:33:20;20.30;54.50
8188;DHT22;4135;49.184;9.722;2023-05-20T12:35:49;20.80;54.90
8188;DHT22;4135;49.184;9.722;2023-05-20T12:38:19;20.30;54.50
8188;DHT22;4135;49.184;9.722;2023-05-20T12:40:48;20.30;54.60
8188;DHT22;4135;49.184;9.722;2023-05-20T12:43:18;20.30;54.50
8188;DHT22;4135;49.184;9.722;2023-05-20T12:45:47;20.40;54.60
8188;DHT22;4135;49.184;9.722;2023-05-20T12:48:17;20.40;54.60
8188;DHT22;4135;49.184;9.722;2023-05-20T12:50:47;20.30;54.50
8188;DHT22;4135;49.184;9.722;2023-05-20T12:53:16;20.40;54.70
8188;DHT22;4135;49.184;9.722;2023-05-20T12:55:46;20.30;54.50
8188;DHT22;4135;49.184;9.722;2023-05-20T12:58:15;20.40;54.60
8188;DHT22;4135;49.184;9.722;2023-05-20T13:00:45;20.40;54.60
8188;DHT22;4135;49.184;9.722;2023-05-20T13:03:14;20.30;54.60
8188;DHT22;4135;49.184;9.722;2023-05-20T13:05:44;20.30;54.60
8188;DHT22;4135;49.184;9.722;2023-05-20T13:08:13;20.30;54.60
8188;DHT22;4135;49.184;9.722;2023-05-20T13:10:43;20.40;54.60
8188;DHT22;4135;49.184;9.722;2023-05-20T13:13:13;20.40;54.60
8188;DHT22;4135;49.184;9.722;2023-05-20T13:15:49;20.40;54.60
8188;DHT22;4135;49.184;9.722;2023-05-20T13:18:19;20.40;54.50
8188;DHT22;4135;49.184;9.722;2023-05-20T13:20:48;20.30;54.50
8188;DHT22;4135;49.184;9.722;2023-05-20T13:23:18;20.30;54.50
8188;DHT22;4135;49.184;9.722;2023-05-20T13:25:48;20.30;54.50
8188;DHT22;4135;49.184;9.722;2023-05-20T13:28:17;20.30;54.60
8188;DHT22;4135;49.184;9.722;2023-05-20T13:30:49;20.30;54.50
8188;DHT22;4135;49.184;9.722;2023-05-20T13:33:18;20.30;54.60
8188;DHT22;4135;49.184;9.722;2023-05-20T13:35:49;20.30;54.60
8188;DHT22;4135;49.184;9.722;2023-05-20T13:38:18;20.30;54.60
8188;DHT22;4135;49.184;9.722;2023-05-20T13:40:48;20.30;54.50
8188;DHT22;4135;49.184;9.722;2023-05-20T13:43:18;20.30;54.60
8188;DHT22;4135;49.184;9.722;2023-05-20T13:45:47;20.30;54.70
8188;DHT22;4135;49.184;9.722;2023-05-20T13:48:17;20.40;54.80
8188;DHT22;4135;49.184;9.722;2023-05-20T13:50:46;20.40;54.80
8188;DHT22;4135;49.184;9.722;2023-05-20T13:53:16;20.40;54.80
8188;DHT22;4135;49.184;9.722;2023-05-20T13:55:46;20.40;54.80
8188;DHT22;4135;49.184;9.722;2023-05-20T13:58:15;20.40;54.80
8188;DHT22;4135;49.184;9.722;2023-05-20T14:00:45;20.40;54.80
8188;DHT22;4135;49.184;9.722;2023-05-20T14:03:14;20.40;54.80
8188;DHT22;4135;49.184;9.722;2023-05-20T14:05:44;20.40;54.80
8188;DHT22;4135;49.184;9.722;2023-05-20T14:08:14;20.40;54.80
8188;DHT22;4135;49.184;9.722;2023-05-20T14:10:43;20.50;54.90
8188;DHT22;4135;49.184;9.722;2023-05-20T14:13:13;20.40;55.10
8188;DHT22;4135;49.184;9.722;2023-05-20T14:15:43;20.40;54.90
8188;DHT22;4135;49.184;9.722;2023-05-20T14:18:12;22.00;56.20
8188;DHT22;4135;49.184;9.722;2023-05-20T14:20:43;20.40;54.90
8188;DHT22;4135;49.184;9.722;2023-05-20T14:23:12;20.40;54.90
8188;DHT22;4135;49.184;9.722;2023-05-20T14:25:42;20.50;55.00
8188;DHT22;4135;49.184;9.722;2023-05-20T14:28:12;20.50;55.00
8188;DHT22;4135;49.184;9.722;2023-05-20T14:30:41;20.50;55.00
8188;DHT22;4135;49.184;9.722;2023-05-20T14:33:11;20.50;55.00
8188;DHT22;4135;49.184;9.722;2023-05-20T14:35:40;20.50;55.00
8188;DHT22;4135;49.184;9.722;2023-05-20T14:38:10;20.40;55.00
8188;DHT22;4135;49.184;9.722;2023-05-20T14:40:39;20.50;55.00
8188;DHT22;4135;49.184;9.722;2023-05-20T14:43:09;20.50;55.00
8188;DHT22;4135;49.184;9.722;2023-05-20T14:45:39;20.50;55.10
8188;DHT22;4135;49.184;9.722;2023-05-20T14:48:08;20.40;55.10
8188;DHT22;4135;49.184;9.722;2023-05-20T14:50:39;20.40;55.20
8188;DHT22;4135;49.184;9.722;2023-05-20T14:53:08;20.40;55.10
8188;DHT22;4135;49.184;9.722;2023-05-20T14:55:37;20.50;55.10
8188;DHT22;4135;49.184;9.722;2023-05-20T14:58:07;20.40;55.10
8188;DHT22;4135;49.184;9.722;2023-05-20T15:00:37;20.40;55.10
8188;DHT22;4135;49.184;9.722;2023-05-20T15:03:07;20.80;55.50
8188;DHT22;4135;49.184;9.722;2023-05-20T15:05:36;20.40;55.10
8188;DHT22;4135;49.184;9.722;2023-05-20T15:08:06;20.50;55.10
8188;DHT22;4135;49.184;9.722;2023-05-20T15:10:35;20.40;55.10
8188;DHT22;4135;49.184;9.722;2023-05-20T15:13:05;20.40;55.10
8188;DHT22;4135;49.184;9.722;2023-05-20T15:15:34;20.50;55.30
8188;DHT22;4135;49.184;9.722;2023-05-20T15:18:04;20.40;55.10
8188;DHT22;4135;49.184;9.722;2023-05-20T15:20:34;20.50;55.30
8188;DHT22;4135;49.184;9.722;2023-05-20T15:23:03;20.40;55.10
8188;DHT22;4135;49.184;9.722;2023-05-20T15:25:33;20.50;55.20
8188;DHT22;4135;49.184;9.722;2023-05-20T15:28:02;20.40;55.20
8188;DHT22;4135;49.184;9.722;2023-05-20T15:30:32;20.40;55.30
8188;DHT22;4135;49.184;9.722;2023-05-20T15:33:01;20.40;55.30
8188;DHT22;4135;49.184;9.722;2023-05-20T15:35:31;20.40;55.60
8188;DHT22;4135;49.184;9.722;2023-05-20T15:38:00;20.40;55.80
8188;DHT22;4135;49.184;9.722;2023-05-20T15:40:30;20.40;56.00
8188;DHT22;4135;49.184;9.722;2023-05-20T15:43:00;20.40;55.90
8188;DHT22;4135;49.184;9.722;2023-05-20T15:45:30;20.40;56.00
8188;DHT22;4135;49.184;9.722;2023-05-20T15:48:00;20.40;56.00
8188;DHT22;4135;49.184;9.722;2023-05-20T15:50:30;20.40;56.10
8188;DHT22;4135;49.184;9.722;2023-05-20T15:53:00;20.30;56.20
8188;DHT22;4135;49.184;9.722;2023-05-20T15:55:29;20.30;56.40
8188;DHT22;4135;49.184;9.722;2023-05-20T15:57:59;20.30;56.70
8188;DHT22;4135;49.184;9.722;2023-05-20T16:00:29;20.20;56.70
8188;DHT22;4135;49.184;9.722;2023-05-20T16:02:58;20.20;56.90
8188;DHT22;4135;49.184;9.722;2023-05-20T16:05:28;20.20;57.10
8188;DHT22;4135;49.184;9.722;2023-05-20T16:07:57;20.20;57.00
8188;DHT22;4135;49.184;9.722;2023-05-20T16:10:27;20.20;57.10
8188;DHT22;4135;49.184;9.722;2023-05-20T16:13:02;20.20;57.20
8188;DHT22;4135;49.184;9.722;2023-05-20T16:15:32;20.20;57.30
8188;DHT22;4135;49.184;9.722;2023-05-20T16:18:04;20.30;57.20
8188;DHT22;4135;49.184;9.722;2023-05-20T16:20:34;20.30;57.90
8188;DHT22;4135;49.184;9.722;2023-05-20T16:23:03;19.40;56.50
8188;DHT22;4135;49.184;9.722;2023-05-20T16:25:33;20.30;57.30
8188;DHT22;4135;49.184;9.722;2023-05-20T16:28:03;20.30;57.40
8188;DHT22;4135;49.184;9.722;2023-05-20T16:30:33;20.30;57.30